Terminal Aerodrome Forecast
Issued by NWS

Home | Current Version | Previous Version | Text Only | Print | Product List | Glossary On
Versions: 1 2 3 4 5 6 7 8 9 10 11 12 13 14 15 16 17 18 19 20 21 22 23 24 25 26 27 28 29 30 31 32 33 34 35 36 37 38
000
FTUS46 KLOX 021858 CCA
TAFLAX
TAF COR
KLAX 021858Z 0218/0324 14004KT P6SM SCT018 BKN150
     FM022000 26012KT P6SM FEW020
     FM030900 VRB03KT P6SM OVC015
     FM031400 VRB03KT P6SM OVC020
     FM031800 26006KT P6SM SCT025
     FM032000 26012KT P6SM SKC=

USA.gov is the U.S. government's official web portal to all federal, state and local government web resources and services.